Mc Donald, Pennsylvania
Current Conditions -  °F | °C
As of 11:05 AM on Tuesday 21 Oct 2014 (Local Time) from KPIT Reporting Station
Overcast Overcast  
Wind Chill: 53°   Ceiling: 3200
Heat Index: 53°   Visibility: 10mi
Dew Point: 48°   Wind: 13mph
Humidity: 83%   Direction: 340°NNW
Pressure: 29.88"   Gusts: NA
Location:  40.3662°N, 80.2739°W
Report Text: KPIT 211505Z 34011KT 10SM FEW012 BKN032 OVC055 12/09 A2988 RMK AO2 T01170089
Loading
Personal Weather Stations






























Interactive Weather Map
Tropical Storm Tracking
New forecast layout! Learn more

10-Day Weather Forecast

Advertisements
Track Severe Weather on mobile